Time;durP1;ratioP1;P1;durP2;ratioP2;P2;SDS_P1;SDS_P2;PMS_P1;PMS_P2;Temp;Humidity;BMP_temperature;BMP_pressure;BME280_temperature;BME280_humidity;BME280_pressure;Samples;Min_cycle;Max_cycle;Signal;HPM_P1;HPM_P2
2021/12/12 00:00:54;;;;;;;28.85;10.75;;;;;;;;;;5069768;28;20060;-72
2021/12/12 00:04:09;;;;;;;30.50;11.23;;;;;;;;;;5070452;28;20061;-73
2021/12/12 00:06:44;;;;;;;40.90;13.40;;;;;;;;;;5067587;28;20103;-71
2021/12/12 00:09:19;;;;;;;25.50;10.38;;;;;;;;;;5069318;28;20128;-71
2021/12/12 00:11:46;;;;;;;26.92;10.02;;;;;;;;;;5069643;28;20100;-71
2021/12/12 00:14:23;;;;;;;31.10;11.05;;;;;;;;;;5070904;28;20151;-72
2021/12/12 00:16:50;;;;;;;33.53;11.45;;;;;;;;;;5069341;28;20049;-70
2021/12/12 00:19:17;;;;;;;30.85;9.88;;;;;;;;;;5069984;28;20503;-71
2021/12/12 00:21:45;;;;;;;30.35;9.93;;;;;;;;;;5069763;28;20059;-72
2021/12/12 00:24:12;;;;;;;30.88;9.30;;;;;;;;;;5069389;28;20057;-71
2021/12/12 00:26:39;;;;;;;26.42;10.23;;;;;;;;;;5069150;28;20053;-72
2021/12/12 00:29:07;;;;;;;30.52;9.23;;;;;;;;;;5069031;28;20060;-71
2021/12/12 00:31:33;;;;;;;24.15;10.63;;;;;;;;;;5069723;28;20060;-71
2021/12/12 00:34:01;;;;;;;33.17;10.40;;;;;;;;;;5069463;28;20537;-72
2021/12/12 00:36:28;;;;;;;36.38;12.02;;;;;;;;;;5069542;28;20057;-72
2021/12/12 00:38:57;;;;;;;29.80;9.90;;;;;;;;;;5069515;28;20175;-74
2021/12/12 00:41:33;;;;;;;31.75;10.43;;;;;;;;;;5069062;28;20049;-72
2021/12/12 00:44:00;;;;;;;25.17;10.48;;;;;;;;;;5068529;28;20057;-71
2021/12/12 00:46:27;;;;;;;35.28;10.70;;;;;;;;;;5069146;28;20056;-70
2021/12/12 00:48:55;;;;;;;34.72;11.30;;;;;;;;;;5068554;28;20095;-71
2021/12/12 00:51:26;;;;;;;40.03;11.83;;;;;;;;;;5068366;28;20061;-70
2021/12/12 00:53:53;;;;;;;31.08;10.95;;;;;;;;;;5069206;28;20271;-70
2021/12/12 00:56:19;;;;;;;36.05;11.32;;;;;;;;;;5069537;28;20057;-70
2021/12/12 00:58:46;;;;;;;35.97;11.85;;;;;;;;;;5068768;28;20509;-71
2021/12/12 01:01:16;;;;;;;25.27;10.45;;;;;;;;;;5068762;28;20061;-70
2021/12/12 01:03:53;;;;;;;35.58;12.45;;;;;;;;;;5066735;28;20157;-72
2021/12/12 01:06:21;;;;;;;43.03;12.02;;;;;;;;;;5068704;28;20123;-72
2021/12/12 01:08:48;;;;;;;29.65;10.80;;;;;;;;;;5069259;28;20143;-71
2021/12/12 01:11:17;;;;;;;33.25;10.75;;;;;;;;;;5067224;28;20131;-71
2021/12/12 01:13:45;;;;;;;31.23;9.90;;;;;;;;;;5067531;28;20061;-73
2021/12/12 01:16:16;;;;;;;32.25;11.05;;;;;;;;;;5068572;28;20128;-72
2021/12/12 01:18:44;;;;;;;34.88;11.15;;;;;;;;;;5068952;28;20055;-71
2021/12/12 01:21:13;;;;;;;;;;;;;;;;;;5068945;28;20053;-71
2021/12/12 01:23:45;;;;;;;34.60;9.85;;;;;;;;;;5066937;28;45693;-72
2021/12/12 01:26:13;;;;;;;36.40;10.75;;;;;;;;;;5068757;28;20049;-72
2021/12/12 01:28:42;;;;;;;31.55;11.60;;;;;;;;;;5068174;28;20055;-72
2021/12/12 01:31:11;;;;;;;42.88;11.35;;;;;;;;;;5068736;28;20590;-71
2021/12/12 01:33:37;;;;;;;40.58;11.90;;;;;;;;;;5067872;28;20912;-72
2021/12/12 01:36:07;;;;;;;32.13;10.13;;;;;;;;;;5067583;28;20534;-72
2021/12/12 01:38:55;;;;;;;43.80;11.98;;;;;;;;;;5067449;28;20079;-72
2021/12/12 01:41:21;;;;;;;40.03;11.02;;;;;;;;;;5068164;28;20513;-73
2021/12/12 01:43:48;;;;;;;35.50;10.93;;;;;;;;;;5069122;28;20068;-73
2021/12/12 01:46:20;;;;;;;39.13;11.30;;;;;;;;;;5068127;28;20056;-73
2021/12/12 01:48:49;;;;;;;32.28;11.25;;;;;;;;;;5069315;28;20122;-72
2021/12/12 01:51:16;;;;;;;37.38;11.15;;;;;;;;;;5068506;28;20056;-72
2021/12/12 01:53:46;;;;;;;39.60;12.30;;;;;;;;;;5069182;28;20056;-71
2021/12/12 01:56:17;;;;;;;32.97;10.85;;;;;;;;;;5067943;28;20848;-72
2021/12/12 01:58:46;;;;;;;37.22;11.82;;;;;;;;;;5068246;28;20143;-73
2021/12/12 02:01:15;;;;;;;38.55;11.10;;;;;;;;;;5067610;28;20052;-72
2021/12/12 02:03:44;;;;;;;36.85;9.23;;;;;;;;;;5068071;28;20053;-71
2021/12/12 02:06:14;;;;;;;27.05;8.18;;;;;;;;;;5068598;28;20064;-72
2021/12/12 02:08:42;;;;;;;40.65;11.75;;;;;;;;;;5067736;28;20088;-71
2021/12/12 02:11:12;;;;;;;40.65;10.65;;;;;;;;;;5068251;28;20060;-72
2021/12/12 02:13:40;;;;;;;31.92;9.90;;;;;;;;;;5067745;28;20063;-71
2021/12/12 02:16:09;;;;;;;33.72;10.30;;;;;;;;;;5066704;28;20099;-72
2021/12/12 02:18:38;;;;;;;34.20;10.70;;;;;;;;;;5068078;28;20060;-71
2021/12/12 02:21:28;;;;;;;30.48;11.02;;;;;;;;;;5067946;28;20474;-72
2021/12/12 02:35:42;;;;;;;27.73;10.07;;;;;;;;;;5067253;28;20063;-71
2021/12/12 02:37:53;;;;;;;35.15;11.02;;;;;;;;;;5066182;28;20594;-73
2021/12/12 02:40:22;;;;;;;32.88;12.50;;;;;;;;;;5066910;28;20057;-73
2021/12/12 02:42:48;;;;;;;37.05;11.68;;;;;;;;;;5066677;28;20059;-72
2021/12/12 02:45:17;;;;;;;36.75;13.50;;;;;;;;;;5067416;28;20059;-73
2021/12/12 02:47:45;;;;;;;53.08;13.32;;;;;;;;;;5067275;28;20147;-73
2021/12/12 02:50:14;;;;;;;35.20;12.82;;;;;;;;;;5067451;28;20103;-72
2021/12/12 02:52:44;;;;;;;35.25;13.45;;;;;;;;;;5067294;28;20064;-71
2021/12/12 02:55:18;;;;;;;36.80;13.88;;;;;;;;;;5066945;28;20053;-72
2021/12/12 02:57:45;;;;;;;41.83;14.00;;;;;;;;;;5066823;28;20080;-72
2021/12/12 03:00:13;;;;;;;33.80;13.25;;;;;;;;;;5067049;28;20060;-71
2021/12/12 03:02:45;;;;;;;26.55;12.48;;;;;;;;;;5066680;28;20061;-72
2021/12/12 03:05:13;;;;;;;36.15;13.20;;;;;;;;;;5067405;28;20140;-71
2021/12/12 03:07:40;;;;;;;45.88;16.13;;;;;;;;;;5067125;28;20145;-71
2021/12/12 03:10:09;;;;;;;39.85;14.23;;;;;;;;;;5067737;28;20049;-72
2021/12/12 03:12:36;;;;;;;38.25;13.90;;;;;;;;;;5067297;28;20640;-70
2021/12/12 03:15:11;;;;;;;27.02;10.63;;;;;;;;;;5066694;28;20140;-72
2021/12/12 03:17:39;;;;;;;34.10;13.63;;;;;;;;;;5067185;28;20057;-71
2021/12/12 03:20:23;;;;;;;41.88;16.10;;;;;;;;;;5066723;28;20057;-72
2021/12/12 03:22:54;;;;;;;51.92;17.13;;;;;;;;;;5067176;28;20080;-70
2021/12/12 03:25:22;;;;;;;42.88;16.63;;;;;;;;;;5067089;28;20140;-71
2021/12/12 03:27:49;;;;;;;41.38;16.48;;;;;;;;;;5069810;28;20049;-74
2021/12/12 03:30:16;;;;;;;46.35;17.40;;;;;;;;;;5070694;28;20067;-72
2021/12/12 03:32:43;;;;;;;36.03;14.85;;;;;;;;;;5071157;28;20052;-72
2021/12/12 03:35:10;;;;;;;46.92;17.73;;;;;;;;;;5070405;28;20057;-70
2021/12/12 03:37:36;;;;;;;39.50;16.85;;;;;;;;;;5069941;28;20053;-72
2021/12/12 03:40:09;;;;;;;39.53;16.60;;;;;;;;;;5070323;28;20524;-70
2021/12/12 03:42:36;;;;;;;38.45;15.63;;;;;;;;;;5070147;28;20049;-71
2021/12/12 03:45:03;;;;;;;43.17;17.65;;;;;;;;;;5069637;28;20629;-72
2021/12/12 03:47:31;;;;;;;41.67;18.00;;;;;;;;;;5070870;28;20088;-71
2021/12/12 03:49:59;;;;;;;49.97;21.88;;;;;;;;;;5070886;28;20080;-72
2021/12/12 03:52:26;;;;;;;51.97;21.55;;;;;;;;;;5069562;28;20055;-72
2021/12/12 03:54:53;;;;;;;55.72;23.13;;;;;;;;;;5070666;28;20144;-73
2021/12/12 03:57:20;;;;;;;54.88;20.88;;;;;;;;;;5069498;28;20088;-72
2021/12/12 03:59:47;;;;;;;58.65;22.90;;;;;;;;;;5070104;28;20630;-71
2021/12/12 04:02:13;;;;;;;56.53;21.95;;;;;;;;;;5070142;28;20096;-72
2021/12/12 04:04:42;;;;;;;58.20;22.17;;;;;;;;;;5069358;28;20144;-70
2021/12/12 04:07:09;;;;;;;;;;;;;;;;;;5070862;28;20060;-72
2021/12/12 04:09:36;;;;;;;52.90;21.05;;;;;;;;;;5068179;28;43575;-72
2021/12/12 04:12:09;;;;;;;62.60;22.38;;;;;;;;;;5069424;28;20053;-71
2021/12/12 04:14:35;;;;;;;68.55;24.25;;;;;;;;;;5069673;28;20059;-70
2021/12/12 04:17:04;;;;;;;58.75;23.48;;;;;;;;;;5069761;28;20211;-71
2021/12/12 04:19:31;;;;;;;72.18;25.08;;;;;;;;;;5070221;28;20057;-71
2021/12/12 04:21:58;;;;;;;65.57;26.35;;;;;;;;;;5069979;28;20059;-71
2021/12/12 04:24:27;;;;;;;58.17;23.15;;;;;;;;;;5069200;28;20053;-71
2021/12/12 04:26:54;;;;;;;79.22;27.67;;;;;;;;;;5069828;28;20521;-71
2021/12/12 04:29:26;;;;;;;53.85;23.23;;;;;;;;;;5069572;28;20056;-72
2021/12/12 04:31:55;;;;;;;81.70;28.38;;;;;;;;;;5069228;28;20049;-71
2021/12/12 04:34:24;;;;;;;73.50;26.05;;;;;;;;;;5068420;28;20152;-73
2021/12/12 04:36:50;;;;;;;64.45;25.10;;;;;;;;;;5069645;28;20052;-72
2021/12/12 04:39:18;;;;;;;56.63;24.85;;;;;;;;;;5068260;28;20064;-72
2021/12/12 04:41:46;;;;;;;71.35;25.75;;;;;;;;;;5068726;28;20127;-70
2021/12/12 04:44:12;;;;;;;111.53;30.48;;;;;;;;;;5069390;28;20511;-71
2021/12/12 04:49:56;;;;;;;75.90;27.90;;;;;;;;;;5070074;28;20061;-71
2021/12/12 04:52:25;;;;;;;78.45;27.95;;;;;;;;;;5069697;28;20499;-71
2021/12/12 04:55:00;;;;;;;66.07;27.13;;;;;;;;;;5070532;28;20052;-71
2021/12/12 04:57:29;;;;;;;75.00;26.80;;;;;;;;;;5069809;28;20142;-71
2021/12/12 05:00:08;;;;;;;80.43;28.38;;;;;;;;;;5069898;28;20100;-71
2021/12/12 05:02:40;;;;;;;88.75;29.85;;;;;;;;;;5069814;28;20049;-71
2021/12/12 05:05:13;;;;;;;74.40;28.52;;;;;;;;;;5070756;28;20496;-70
2021/12/12 05:07:44;;;;;;;88.65;31.27;;;;;;;;;;5069352;28;20060;-72
2021/12/12 05:10:26;;;;;;;87.13;28.88;;;;;;;;;;5069850;28;20478;-71
2021/12/12 05:12:58;;;;;;;89.13;31.08;;;;;;;;;;5070165;28;20045;-72
2021/12/12 05:15:36;;;;;;;78.82;28.42;;;;;;;;;;5068914;28;20148;-73
2021/12/12 05:18:10;;;;;;;82.63;29.03;;;;;;;;;;5070550;28;20053;-71
2021/12/12 05:20:41;;;;;;;79.50;27.85;;;;;;;;;;5069388;28;20057;-72
2021/12/12 05:23:11;;;;;;;97.65;30.70;;;;;;;;;;5070265;28;20055;-71
2021/12/12 05:25:45;;;;;;;83.32;30.17;;;;;;;;;;5067221;28;20053;-73
2021/12/12 05:28:13;;;;;;;77.43;28.25;;;;;;;;;;5069983;28;20061;-72
2021/12/12 05:30:40;;;;;;;;;;;;;;;;;;5069445;28;20053;-72
2021/12/12 05:33:07;;;;;;;79.88;26.30;;;;;;;;;;5068781;28;45825;-73
2021/12/12 05:35:35;;;;;;;71.57;27.23;;;;;;;;;;5069047;28;20559;-71
2021/12/12 05:38:05;;;;;;;96.95;31.90;;;;;;;;;;5069071;28;20206;-72
2021/12/12 05:40:32;;;;;;;99.50;32.15;;;;;;;;;;5069779;28;20053;-71
2021/12/12 05:43:00;;;;;;;112.25;32.58;;;;;;;;;;5068433;28;20148;-70
2021/12/12 05:45:27;;;;;;;83.13;28.53;;;;;;;;;;5069542;28;20152;-71
2021/12/12 05:47:54;;;;;;;99.55;31.33;;;;;;;;;;5069578;28;20838;-71
2021/12/12 05:50:20;;;;;;;107.93;31.50;;;;;;;;;;5068037;28;20507;-71
2021/12/12 05:52:47;;;;;;;108.72;33.10;;;;;;;;;;5069840;28;20060;-70
2021/12/12 05:55:15;;;;;;;102.28;32.65;;;;;;;;;;5068349;28;20529;-72
2021/12/12 05:57:43;;;;;;;137.37;34.13;;;;;;;;;;5069336;28;20267;-71
2021/12/12 06:00:12;;;;;;;135.98;35.33;;;;;;;;;;5068929;28;20280;-72
2021/12/12 06:02:38;;;;;;;;;;;;;;;;;;5069593;28;20067;-73
2021/12/12 06:05:05;;;;;;;110.68;30.85;;;;;;;;;;5067727;28;44862;-71
2021/12/12 06:07:32;;;;;;;112.53;33.63;;;;;;;;;;5069945;28;20057;-71
2021/12/12 06:10:01;;;;;;;149.13;37.20;;;;;;;;;;5068712;28;20055;-73
2021/12/12 06:12:27;;;;;;;128.02;36.15;;;;;;;;;;5069055;28;20500;-72
2021/12/12 06:14:55;;;;;;;115.43;36.50;;;;;;;;;;5068305;28;20053;-73
2021/12/12 06:17:22;;;;;;;96.97;33.80;;;;;;;;;;5069340;28;20053;-72
2021/12/12 06:19:49;;;;;;;118.53;35.50;;;;;;;;;;5068390;28;20136;-72
2021/12/12 06:22:16;;;;;;;134.02;37.92;;;;;;;;;;5068980;28;20053;-72
2021/12/12 06:24:42;;;;;;;125.97;36.90;;;;;;;;;;5068339;28;20123;-74
2021/12/12 06:27:10;;;;;;;139.38;36.67;;;;;;;;;;5068983;28;20053;-73
2021/12/12 06:29:36;;;;;;;115.90;36.22;;;;;;;;;;5069559;28;20049;-73
2021/12/12 06:32:04;;;;;;;141.65;36.22;;;;;;;;;;5067898;28;20860;-72
2021/12/12 06:34:30;;;;;;;183.93;39.13;;;;;;;;;;5068453;28;20648;-71
2021/12/12 06:36:57;;;;;;;162.60;39.28;;;;;;;;;;5069357;28;20053;-71
2021/12/12 06:39:23;;;;;;;143.55;37.30;;;;;;;;;;5067294;28;20507;-73
2021/12/12 06:41:50;;;;;;;170.38;38.80;;;;;;;;;;5068500;28;20523;-72
2021/12/12 06:44:17;;;;;;;144.93;35.75;;;;;;;;;;5068039;28;20053;-71
2021/12/12 06:46:44;;;;;;;129.48;34.15;;;;;;;;;;5067611;28;20145;-72
2021/12/12 06:49:13;;;;;;;136.60;36.42;;;;;;;;;;5068139;28;20493;-71
2021/12/12 06:51:43;;;;;;;162.40;40.65;;;;;;;;;;5067016;28;20527;-72
2021/12/12 06:54:09;;;;;;;164.68;40.55;;;;;;;;;;5067583;28;20067;-73
2021/12/12 06:56:36;;;;;;;141.55;37.33;;;;;;;;;;5066839;28;20430;-72
2021/12/12 06:59:03;;;;;;;154.27;38.85;;;;;;;;;;5067530;28;20103;-72
2021/12/12 07:01:32;;;;;;;153.90;39.28;;;;;;;;;;5067674;28;20487;-74
2021/12/12 07:03:59;;;;;;;184.70;40.92;;;;;;;;;;5070879;28;20065;-72
2021/12/12 07:06:27;;;;;;;157.88;38.40;;;;;;;;;;5070345;28;20084;-73
2021/12/12 07:08:56;;;;;;;191.45;41.22;;;;;;;;;;5071809;28;20087;-73
2021/12/12 07:11:23;;;;;;;185.65;42.80;;;;;;;;;;5070929;28;20057;-73
2021/12/12 07:13:50;;;;;;;215.02;41.95;;;;;;;;;;5071053;28;20065;-72
2021/12/12 07:16:17;;;;;;;173.70;41.03;;;;;;;;;;5069425;28;20049;-72
2021/12/12 07:18:44;;;;;;;209.65;42.67;;;;;;;;;;5070654;28;20439;-72
2021/12/12 07:21:13;;;;;;;201.35;43.10;;;;;;;;;;5070727;28;20069;-72
2021/12/12 07:23:41;;;;;;;233.43;46.60;;;;;;;;;;5070891;28;20118;-72
2021/12/12 07:26:10;;;;;;;251.07;44.55;;;;;;;;;;5071028;28;20370;-73
2021/12/12 07:28:37;;;;;;;198.52;41.00;;;;;;;;;;5069859;28;20053;-74
2021/12/12 07:31:05;;;;;;;190.90;41.00;;;;;;;;;;5070830;28;20506;-72
2021/12/12 07:33:32;;;;;;;232.40;44.00;;;;;;;;;;5070841;28;20061;-70
2021/12/12 07:35:59;;;;;;;235.00;44.33;;;;;;;;;;5070650;28;20144;-72
2021/12/12 07:38:27;;;;;;;198.95;42.35;;;;;;;;;;5069984;28;20053;-72
2021/12/12 07:40:54;;;;;;;133.40;27.90;;;;;;;;;;5070872;28;20061;-73
2021/12/12 07:43:21;;;;;;;178.20;32.42;;;;;;;;;;5069617;28;20081;-74
2021/12/12 07:45:47;;;;;;;126.63;27.48;;;;;;;;;;5070908;28;20041;-73
2021/12/12 07:48:14;;;;;;;179.43;31.70;;;;;;;;;;5071060;28;20067;-72
2021/12/12 07:50:42;;;;;;;147.68;28.65;;;;;;;;;;5069831;28;20136;-72
2021/12/12 07:53:09;;;;;;;190.80;32.10;;;;;;;;;;5070036;28;20526;-73
2021/12/12 07:55:36;;;;;;;167.45;30.73;;;;;;;;;;5069947;28;20056;-73
2021/12/12 07:58:07;;;;;;;135.57;29.42;;;;;;;;;;5070139;28;20495;-72
2021/12/12 08:00:34;;;;;;;132.50;28.73;;;;;;;;;;5070051;28;20049;-73
2021/12/12 08:03:01;;;;;;;163.00;29.95;;;;;;;;;;5069844;28;20111;-73
2021/12/12 08:05:29;;;;;;;161.63;28.67;;;;;;;;;;5069944;28;20056;-72
2021/12/12 08:07:56;;;;;;;;;;;;;;;;;;5069504;28;20061;-73
2021/12/12 08:10:22;;;;;;;148.20;27.67;;;;;;;;;;5069473;28;42435;-72
2021/12/12 08:12:48;;;;;;;118.32;25.45;;;;;;;;;;5069794;28;20132;-72
2021/12/12 08:15:15;;;;;;;127.00;27.50;;;;;;;;;;5069790;28;20057;-72
2021/12/12 08:17:42;;;;;;;129.40;27.27;;;;;;;;;;5068313;28;20152;-73
2021/12/12 08:20:10;;;;;;;149.13;27.90;;;;;;;;;;5069600;28;20528;-71
2021/12/12 08:22:37;;;;;;;127.75;26.80;;;;;;;;;;5069762;28;20052;-73
2021/12/12 08:25:04;;;;;;;128.57;28.17;;;;;;;;;;5069846;28;20048;-74
2021/12/12 08:27:31;;;;;;;124.57;25.77;;;;;;;;;;5069732;28;20132;-74
2021/12/12 08:29:57;;;;;;;126.07;26.30;;;;;;;;;;5068225;28;20060;-74
2021/12/12 08:32:24;;;;;;;102.90;25.25;;;;;;;;;;5069195;28;20053;-71
2021/12/12 08:35:07;;;;;;;123.10;29.88;;;;;;;;;;5069145;28;20057;-70
2021/12/12 08:37:34;;;;;;;174.05;31.35;;;;;;;;;;5068319;28;20148;-71
2021/12/12 08:40:01;;;;;;;163.68;29.27;;;;;;;;;;5069354;28;20053;-70
2021/12/12 08:42:27;;;;;;;182.32;29.80;;;;;;;;;;5068683;28;20079;-71
2021/12/12 08:44:55;;;;;;;184.18;32.00;;;;;;;;;;5069024;28;20503;-71
2021/12/12 08:47:21;;;;;;;126.57;26.63;;;;;;;;;;5068328;28;20477;-70
2021/12/12 08:49:48;;;;;;;177.43;27.95;;;;;;;;;;5069449;28;20057;-71
2021/12/12 08:52:22;;;;;;;129.73;27.23;;;;;;;;;;5069300;28;20061;-71
2021/12/12 08:54:50;;;;;;;117.03;25.67;;;;;;;;;;5069485;28;20150;-70
2021/12/12 08:57:32;;;;;;;94.65;22.17;;;;;;;;;;5068671;28;20565;-72
2021/12/12 09:00:21;;;;;;;118.97;22.77;;;;;;;;;;5069209;28;20486;-70
2021/12/12 09:02:49;;;;;;;146.00;24.30;;;;;;;;;;5068931;28;20060;-70
2021/12/12 09:05:17;;;;;;;132.20;25.00;;;;;;;;;;5069147;28;20079;-70
2021/12/12 09:08:07;;;;;;;114.82;23.63;;;;;;;;;;5068419;28;20435;-71
2021/12/12 09:10:45;;;;;;;159.65;26.73;;;;;;;;;;5068300;28;20057;-71
2021/12/12 09:13:15;;;;;;;131.68;25.95;;;;;;;;;;5069217;28;20061;-70
2021/12/12 09:15:47;;;;;;;133.65;25.73;;;;;;;;;;5068669;28;20577;-71
2021/12/12 09:18:24;;;;;;;119.78;24.55;;;;;;;;;;5068720;28;20053;-71
2021/12/12 09:21:13;;;;;;;99.50;20.75;;;;;;;;;;5068825;28;20096;-71
2021/12/12 09:23:45;;;;;;;115.13;23.17;;;;;;;;;;5069141;28;20510;-70
2021/12/12 09:26:14;;;;;;;120.40;24.60;;;;;;;;;;5067965;28;20463;-72
2021/12/12 09:28:47;;;;;;;101.75;21.08;;;;;;;;;;5068352;28;20065;-71
2021/12/12 09:31:15;;;;;;;102.90;21.77;;;;;;;;;;5068440;28;20055;-71
2021/12/12 09:33:47;;;;;;;121.00;24.92;;;;;;;;;;5066778;28;20766;-71
2021/12/12 09:36:17;;;;;;;110.90;22.15;;;;;;;;;;5068062;28;20052;-71
2021/12/12 09:38:47;;;;;;;84.38;20.77;;;;;;;;;;5068219;28;20504;-71
2021/12/12 09:41:23;;;;;;;121.85;23.65;;;;;;;;;;5068436;28;20519;-71
2021/12/12 09:44:01;;;;;;;113.40;21.25;;;;;;;;;;5068267;28;20053;-71
2021/12/12 09:46:57;;;;;;;79.28;19.63;;;;;;;;;;5067577;28;20571;-69
2021/12/12 09:52:46;;;;;;;79.38;24.65;;;;;;;;;;5068331;28;20053;-71
2021/12/12 09:55:15;;;;;;;67.65;15.63;;;;;;;;;;5068390;28;20056;-71
2021/12/12 09:57:50;;;;;;;60.40;16.58;;;;;;;;;;5068590;28;20987;-70
2021/12/12 10:00:30;;;;;;;67.70;16.92;;;;;;;;;;5067425;28;20056;-72
2021/12/12 10:03:15;;;;;;;71.93;16.15;;;;;;;;;;5068225;28;20053;-71
2021/12/12 10:06:00;;;;;;;67.30;17.65;;;;;;;;;;5068039;28;20135;-71
2021/12/12 10:08:36;;;;;;;93.70;18.35;;;;;;;;;;5067911;28;20144;-71
2021/12/12 10:11:25;;;;;;;66.85;16.45;;;;;;;;;;5068925;28;20495;-71
2021/12/12 10:14:21;;;;;;;69.45;18.17;;;;;;;;;;5067536;28;20141;-70
2021/12/12 10:16:53;;;;;;;62.72;16.45;;;;;;;;;;5065137;28;20049;-70
2021/12/12 10:19:25;;;;;;;68.75;17.65;;;;;;;;;;5067437;28;20052;-70
2021/12/12 10:22:01;;;;;;;62.17;17.60;;;;;;;;;;5067914;28;20144;-71
2021/12/12 10:24:30;;;;;;;51.83;15.00;;;;;;;;;;5068206;28;20188;-70
2021/12/12 10:27:14;;;;;;;66.22;16.95;;;;;;;;;;5066354;28;20061;-72
2021/12/12 10:29:56;;;;;;;49.53;14.13;;;;;;;;;;5067409;28;20045;-71
2021/12/12 10:32:27;;;;;;;43.05;13.63;;;;;;;;;;5067397;28;20130;-72
2021/12/12 10:35:05;;;;;;;48.10;14.10;;;;;;;;;;5067879;28;20131;-71
2021/12/12 10:37:40;;;;;;;51.78;15.20;;;;;;;;;;5068523;28;20048;-70
2021/12/12 10:40:14;;;;;;;58.13;14.63;;;;;;;;;;5071423;28;20057;-70
2021/12/12 10:42:48;;;;;;;61.10;15.27;;;;;;;;;;5069809;28;20061;-72
2021/12/12 10:45:24;;;;;;;68.40;14.98;;;;;;;;;;5071647;28;20136;-70
2021/12/12 10:47:57;;;;;;;38.13;11.63;;;;;;;;;;5070551;28;20139;-70
2021/12/12 10:50:30;;;;;;;40.90;11.63;;;;;;;;;;5071070;28;20049;-70
2021/12/12 10:53:00;;;;;;;36.85;10.82;;;;;;;;;;5070735;28;20586;-70
2021/12/12 10:55:33;;;;;;;41.47;11.85;;;;;;;;;;5071555;28;20057;-71
2021/12/12 10:58:02;;;;;;;38.63;12.07;;;;;;;;;;5071073;28;20059;-71
2021/12/12 11:00:31;;;;;;;33.65;10.40;;;;;;;;;;5070839;28;20067;-71
2021/12/12 11:03:27;;;;;;;74.10;14.60;;;;;;;;;;5071393;28;20056;-71
2021/12/12 11:05:58;;;;;;;44.97;12.25;;;;;;;;;;5069700;28;20501;-70
2021/12/12 11:08:30;;;;;;;45.10;12.57;;;;;;;;;;5070699;28;20055;-72
2021/12/12 11:11:06;;;;;;;39.80;12.52;;;;;;;;;;5070742;28;20057;-71
2021/12/12 11:13:34;;;;;;;62.75;14.75;;;;;;;;;;5070951;28;20059;-72
2021/12/12 11:16:15;;;;;;;57.33;14.82;;;;;;;;;;5069852;28;20057;-70
2021/12/12 11:18:46;;;;;;;81.72;16.30;;;;;;;;;;5070715;28;20053;-71
2021/12/12 11:21:20;;;;;;;68.32;16.33;;;;;;;;;;5070476;28;20064;-71
2021/12/12 11:23:55;;;;;;;46.20;14.82;;;;;;;;;;5070760;28;20053;-71
2021/12/12 11:26:40;;;;;;;53.60;13.15;;;;;;;;;;5070802;28;20602;-71
2021/12/12 11:29:10;;;;;;;50.55;13.50;;;;;;;;;;5070395;28;20077;-71
2021/12/12 11:31:41;;;;;;;48.78;13.38;;;;;;;;;;5070093;28;20111;-70
2021/12/12 11:34:08;;;;;;;49.60;14.23;;;;;;;;;;5070487;28;20140;-71
2021/12/12 11:36:37;;;;;;;49.35;13.40;;;;;;;;;;5070131;28;20057;-70
2021/12/12 11:39:24;;;;;;;58.80;14.40;;;;;;;;;;5070823;28;20136;-71
2021/12/12 11:41:59;;;;;;;83.90;14.40;;;;;;;;;;5069730;28;20529;-70
2021/12/12 11:44:33;;;;;;;51.88;13.52;;;;;;;;;;5068758;28;20061;-71
2021/12/12 11:47:05;;;;;;;53.42;14.95;;;;;;;;;;5070576;28;20059;-71
2021/12/12 11:49:50;;;;;;;37.17;10.65;;;;;;;;;;5069514;28;20053;-71
2021/12/12 11:52:35;;;;;;;33.90;11.02;;;;;;;;;;5070394;28;20136;-72
2021/12/12 11:55:06;;;;;;;48.17;12.20;;;;;;;;;;5070293;28;20140;-70
2021/12/12 11:57:36;;;;;;;51.65;13.25;;;;;;;;;;5069477;28;20055;-70
2021/12/12 12:00:09;;;;;;;38.25;10.65;;;;;;;;;;5070231;28;20052;-71
2021/12/12 12:02:40;;;;;;;44.75;12.20;;;;;;;;;;5069406;28;20092;-71
2021/12/12 12:05:23;;;;;;;46.60;12.25;;;;;;;;;;5071046;28;20057;-70
2021/12/12 12:08:00;;;;;;;64.65;19.48;;;;;;;;;;5070145;28;20053;-72
2021/12/12 12:10:29;;;;;;;88.65;22.23;;;;;;;;;;5068327;28;20149;-72
2021/12/12 12:12:55;;;;;;;75.13;21.40;;;;;;;;;;5069586;28;20049;-72
2021/12/12 12:15:38;;;;;;;82.95;21.35;;;;;;;;;;5069320;28;20450;-71
2021/12/12 12:18:21;;;;;;;50.08;18.92;;;;;;;;;;5069106;28;20495;-71
2021/12/12 12:20:53;;;;;;;45.33;17.38;;;;;;;;;;5069664;28;20151;-71
2021/12/12 12:23:20;;;;;;;49.78;18.15;;;;;;;;;;5069942;28;20063;-72
2021/12/12 12:28:45;;;;;;;;;;;;;;;;;;5058636;28;20745;-72
2021/12/12 12:31:31;;;;;;;51.88;17.85;;;;;;;;;;5068674;28;45558;-72
2021/12/12 12:34:17;;;;;;;52.80;17.10;;;;;;;;;;5068751;28;20503;-70
2021/12/12 12:37:02;;;;;;;54.28;19.10;;;;;;;;;;5068958;28;20053;-72
2021/12/12 12:39:31;;;;;;;87.70;32.25;;;;;;;;;;5069659;28;20140;-72
2021/12/12 12:42:16;;;;;;;69.22;25.98;;;;;;;;;;5069408;28;20052;-72
2021/12/12 12:45:18;;;;;;;135.57;24.95;;;;;;;;;;5069637;28;20147;-72
2021/12/12 12:48:10;;;;;;;66.28;24.80;;;;;;;;;;5069229;28;20061;-71
2021/12/12 12:50:38;;;;;;;57.88;20.38;;;;;;;;;;5067582;28;20055;-71
2021/12/12 12:53:16;;;;;;;73.45;22.67;;;;;;;;;;5069776;28;20504;-71
2021/12/12 12:56:15;;;;;;;103.47;27.52;;;;;;;;;;5069517;28;20140;-71
2021/12/12 12:58:48;;;;;;;66.78;21.02;;;;;;;;;;5066877;28;20136;-72
2021/12/12 13:01:41;;;;;;;50.78;15.60;;;;;;;;;;5068656;28;20598;-72
2021/12/12 13:04:12;;;;;;;58.00;16.90;;;;;;;;;;5067494;28;20048;-73
2021/12/12 13:06:57;;;;;;;64.28;18.23;;;;;;;;;;5069100;28;20053;-72
2021/12/12 13:09:42;;;;;;;60.97;17.75;;;;;;;;;;5068736;28;20131;-71
2021/12/12 13:12:08;;;;;;;69.10;19.42;;;;;;;;;;5068868;28;20451;-71
2021/12/12 13:14:47;;;;;;;114.60;22.38;;;;;;;;;;5068810;28;20132;-70
2021/12/12 13:17:15;;;;;;;57.95;18.85;;;;;;;;;;5068748;28;20605;-70
2021/12/12 13:20:00;;;;;;;57.25;18.02;;;;;;;;;;5069014;28;20053;-70
2021/12/12 13:22:33;;;;;;;59.53;17.45;;;;;;;;;;5069158;28;20148;-71
2021/12/12 13:25:07;;;;;;;74.70;19.88;;;;;;;;;;5068355;28;20927;-71
2021/12/12 13:28:41;;;;;;;68.28;20.60;;;;;;;;;;5068754;28;20473;-70
2021/12/12 13:30:43;;;;;;;53.38;18.83;;;;;;;;;;5060678;28;20084;-70
2021/12/12 13:33:28;;;;;;;58.15;19.00;;;;;;;;;;5068984;28;20060;-70
2021/12/12 13:36:03;;;;;;;106.55;21.75;;;;;;;;;;5068300;28;20053;-70
2021/12/12 13:38:49;;;;;;;94.85;25.50;;;;;;;;;;5068872;28;20077;-70
2021/12/12 13:41:20;;;;;;;115.38;32.55;;;;;;;;;;5068672;28;20081;-70
2021/12/12 13:43:52;;;;;;;83.05;25.88;;;;;;;;;;5067976;28;20057;-70
2021/12/12 13:46:26;;;;;;;82.55;25.15;;;;;;;;;;5067961;28;20053;-70
2021/12/12 13:48:58;;;;;;;86.75;25.13;;;;;;;;;;5068121;28;20124;-70
2021/12/12 13:51:24;;;;;;;92.22;26.75;;;;;;;;;;5067759;28;20063;-70
2021/12/12 13:53:50;;;;;;;77.93;30.67;;;;;;;;;;5067774;28;20055;-71
2021/12/12 13:56:25;;;;;;;92.32;28.27;;;;;;;;;;5067799;28;20538;-71
2021/12/12 13:58:51;;;;;;;72.25;23.52;;;;;;;;;;5068434;28;20048;-70
2021/12/12 14:01:47;;;;;;;87.80;25.25;;;;;;;;;;5068412;28;20138;-70
2021/12/12 14:04:19;;;;;;;125.68;30.35;;;;;;;;;;5066554;28;20875;-70
2021/12/12 14:06:46;;;;;;;107.15;25.92;;;;;;;;;;5067293;28;20539;-70
2021/12/12 14:09:16;;;;;;;81.13;24.48;;;;;;;;;;5066560;28;20053;-71
2021/12/12 14:11:45;;;;;;;89.38;25.70;;;;;;;;;;5067948;28;20049;-70
2021/12/12 14:14:16;;;;;;;110.70;27.33;;;;;;;;;;5067377;28;20052;-71
2021/12/12 14:16:44;;;;;;;85.70;24.42;;;;;;;;;;5067926;28;20052;-70
2021/12/12 14:19:10;;;;;;;;;;;;;;;;;;5067191;28;20057;-70
2021/12/12 14:21:37;;;;;;;108.40;26.50;;;;;;;;;;5066368;28;44802;-70
2021/12/12 14:24:05;;;;;;;115.55;29.98;;;;;;;;;;5067389;28;20537;-71
2021/12/12 14:26:33;;;;;;;98.07;25.92;;;;;;;;;;5067588;28;20049;-70
2021/12/12 14:28:59;;;;;;;;;;;;;;;;;;5067088;28;20155;-72
2021/12/12 14:31:33;;;;;;;98.78;26.85;;;;;;;;;;5066752;28;44535;-70
2021/12/12 14:34:10;;;;;;;95.68;26.15;;;;;;;;;;5067678;28;20135;-70
2021/12/12 14:36:41;;;;;;;122.95;28.40;;;;;;;;;;5067548;28;20135;-70
2021/12/12 14:39:07;;;;;;;83.90;25.05;;;;;;;;;;5068059;28;20053;-72
2021/12/12 14:41:41;;;;;;;98.55;26.45;;;;;;;;;;5066635;28;20063;-71
2021/12/12 14:44:10;;;;;;;99.82;33.53;;;;;;;;;;5067931;28;20053;-71
2021/12/12 14:46:40;;;;;;;165.95;42.38;;;;;;;;;;5066519;28;20063;-70
2021/12/12 14:49:08;;;;;;;127.10;37.15;;;;;;;;;;5067674;28;20450;-71
2021/12/12 14:51:50;;;;;;;180.23;41.40;;;;;;;;;;5066963;28;20061;-70
2021/12/12 14:54:17;;;;;;;154.95;42.05;;;;;;;;;;5067762;28;20057;-70
2021/12/12 14:56:45;;;;;;;213.93;48.58;;;;;;;;;;5066824;28;20540;-70
2021/12/12 14:59:19;;;;;;;194.05;60.70;;;;;;;;;;5067438;28;20091;-70
2021/12/12 15:01:48;;;;;;;155.65;41.75;;;;;;;;;;5067322;28;20491;-70